Last Tycoon — ZDJZ6 — position and weather

sailwx.info

Track history (hours):
 
Tides and Currents Weather Stations Pressure Air Temp Water Temp Dewpoint Dewpoint Depression Visibility Wind Speed Wind Dir Waves Ship Positions

Last Tycoon

Last reported at 2016-Aug-29 01:33 UTC. Time now 2016-Aug-29 01:52 UTC.
Position N 55°33' E 015°08'.

Length 180 m; draft 8.6 m.

Type: Cargo ship. MMSI: 236607000.

Date/timePositionNaut miles runAvg speedWind from/ knotsBaromVisibWave heightAir tempDewpointWater temp
2016-Aug-29 01:33N 55°33' E 015°08'1312.5
2016-Aug-29 00:33N 55°26' E 014°49'1212.0
2016-Aug-28 23:33N 55°18' E 014°33'1212.2
2016-Aug-28 22:33N 55°08' E 014°21'1212.0
2016-Aug-28 21:33N 55°00' E 014°06'1212.1
2016-Aug-28 20:33N 54°57' E 013°45'1211.9
2016-Aug-28 19:33N 54°54' E 013°26'1212.1
2016-Aug-28 18:33N 54°50' E 013°06'1212.2
2016-Aug-28 17:33N 54°46' E 012°46'1211.9
2016-Aug-28 16:33N 54°39' E 012°28'1111.0
2016-Aug-28 15:33N 54°31' E 012°16'10 9.8
2016-Aug-28 14:33N 54°25' E 012°03'1212.1
2016-Aug-28 13:33N 54°26' E 011°43'1211.7
2016-Aug-28 12:33N 54°31' E 011°24'1111.1
2016-Aug-28 11:33N 54°35' E 011°06'1010.4
2016-Aug-28 10:33N 54°39' E 010°50'10 9.5
2016-Aug-28 09:33N 54°49' E 010°50'1010.1
2016-Aug-28 08:33N 54°58' E 010°57'1010.4
2016-Aug-28 07:33N 55°08' E 010°59'9 9.0
2016-Aug-28 06:33N 55°17' E 011°03'1110.3
2016-Aug-28 05:30N 55°27' E 010°56'30 9.3
2016-Aug-28 02:17N 55°57' E 010°59'810.6
2016-Aug-28 01:33N 56°03' E 011°06'1110.7
2016-Aug-28 00:33N 56°12' E 011°18'1110.9
2016-Aug-27 23:33N 56°22' E 011°26'1111.3
2016-Aug-27 22:33N 56°31' E 011°37'1111.2
2016-Aug-27 21:33N 56°41' E 011°47'1010.1
2016-Aug-27 20:33N 56°51' E 011°48'1111.2
2016-Aug-27 19:33N 57°02' E 011°41'1111.1
2016-Aug-27 18:33N 57°12' E 011°34'1111.5
2016-Aug-27 17:33N 57°23' E 011°26'1111.0
2016-Aug-27 16:33N 57°32' E 011°15'1111.2
2016-Aug-27 15:33N 57°36' E 010°56'10 1.1
2016-Aug-27 06:32N 57°40' E 010°38'7 3.6
2016-Aug-27 04:33N 57°47' E 010°40'65 9.2
2016-Aug-26 21:32N 57°22' E 008°49'221 9.9
2016-Aug-25 23:17N 54°25' E 004°52'811.6
2016-Aug-25 22:33N 54°18' E 004°45'3411.1
2016-Aug-25 19:28N 53°47' E 004°22'77 9.7
2016-Aug-25 11:30N 52°40' E 003°17'1111.1
2016-Aug-25 10:33N 52°29' E 003°14'1211.8
2016-Aug-25 09:34N 52°18' E 003°10'1212.1
2016-Aug-25 08:33N 52°06' E 003°04'1312.6
2016-Aug-25 07:33N 51°57' E 002°50'1312.8
2016-Aug-25 06:33N 51°47' E 002°36'2612.8
2016-Aug-25 04:33N 51°28' E 002°10'1212.3
2016-Aug-25 03:34N 51°19' E 001°57'1211.9
2016-Aug-25 02:34N 51°10' E 001°44'1110.8
2016-Aug-25 01:33N 51°01' E 001°34'9 9.2
2016-Aug-25 00:34N 50°54' E 001°25'10 9.2
2016-Aug-24 23:25N 50°43' E 001°21'9 9.9
2016-Aug-24 22:31N 50°37' E 001°11'13 9.7
2016-Aug-24 21:08N 50°31' E 000°53'610.3
2016-Aug-24 20:32N 50°29' E 000°43'1010.2
2016-Aug-24 19:33N 50°26' E 000°28'1010.0
2016-Aug-24 18:33N 50°23' E 000°13'1010.3
2016-Aug-24 17:33N 50°21' W 000°03'1010.5
2016-Aug-24 16:34N 50°18' W 000°18'1111.0
2016-Aug-24 15:34N 50°15' W 000°35'1212.2
2016-Aug-24 14:33N 50°11' W 000°53'1813.8
2016-Aug-24 13:13N 50°06' W 001°21'1014.7
2016-Aug-24 12:33N 50°03' W 001°35'2315.2
2016-Aug-24 11:04N 49°57' W 002°09'714.1
2016-Aug-24 10:33N 49°55' W 002°20'1313.2
2016-Aug-24 09:34N 49°51' W 002°39'1312.5
2016-Aug-24 08:33N 49°48' W 002°58'1111.6
2016-Aug-24 07:34N 49°42' W 003°14'1211.3
2016-Aug-24 06:30N 49°36' W 003°30'2210.6
2016-Aug-24 04:26N 49°24' W 003°58'9 9.9
2016-Aug-24 03:34N 49°20' W 004°09'10 9.7
2016-Aug-24 02:34N 49°15' W 004°22'10 9.6
2016-Aug-24 01:31N 49°10' W 004°36'9 9.7
2016-Aug-24 00:34N 49°05' W 004°47'1010.1
2016-Aug-23 23:33N 48°59' W 005°00'1110.8
2016-Aug-23 22:33N 48°54' W 005°15'1211.7
2016-Aug-23 21:34N 48°48' W 005°30'1111.2
2016-Aug-23 20:33N 48°39' W 005°41'1212.0
2016-Aug-23 19:33N 48°29' W 005°49'24911.7
2016-Aug-22 22:16N 44°48' W 008°38'811.6
2016-Aug-22 21:33N 44°41' W 008°43'2511.2
2016-Aug-22 19:21N 44°19' W 008°59'1111.2
2016-Aug-22 18:20N 44°09' W 009°07'911.4
2016-Aug-22 17:33N 44°01' W 009°12'23210.8
2016-Aug-21 20:07N 40°19' W 010°43'6 9.9
2016-Aug-21 19:33N 40°14' W 010°45'13 9.7
2016-Aug-21 18:16N 40°02' W 010°50'710.4
2016-Aug-21 17:34N 39°55' W 010°52'1110.4
2016-Aug-21 16:31N 39°45' W 010°56'1010.1
2016-Aug-21 15:33N 39°35' W 010°59'11 9.9
2016-Aug-21 14:26N 39°25' W 011°03'  
2016-Aug-19 09:04N 30°11' W 014°13'611.4
2016-Aug-19 08:33N 30°06' W 014°15'1211.6
2016-Aug-19 07:33N 29°54' W 014°19'1211.8
2016-Aug-19 06:33N 29°43' W 014°23'1211.6
2016-Aug-19 05:33N 29°32' W 014°26'1511.4
2016-Aug-19 04:15N 29°18' W 014°31'811.3
2016-Aug-19 03:33N 29°10' W 014°33'1111.5
2016-Aug-19 02:34N 28°59' W 014°36'  
Track history (hours):
 
Tides and Currents Weather Stations Pressure Air Temp Water Temp Dewpoint Dewpoint Depression Visibility Wind Speed Wind Dir Waves Ship Positions

Last Tycoon

Last reported at 2016-Aug-29 01:33 UTC. Time now 2016-Aug-29 01:52 UTC.
Position N 55°33' E 015°08'.

Length 180 m; draft 8.6 m.

Type: Cargo ship. MMSI: 236607000.

Date/timePositionNaut miles runAvg speedWind from/ knotsBaromVisibWave heightAir tempDewpointWater temp
2016-Aug-29 01:33N 55°33' E 015°08'1312.5
2016-Aug-29 00:33N 55°26' E 014°49'1212.0
2016-Aug-28 23:33N 55°18' E 014°33'1212.2
2016-Aug-28 22:33N 55°08' E 014°21'1212.0
2016-Aug-28 21:33N 55°00' E 014°06'1212.1
2016-Aug-28 20:33N 54°57' E 013°45'1211.9
2016-Aug-28 19:33N 54°54' E 013°26'1212.1
2016-Aug-28 18:33N 54°50' E 013°06'1212.2
2016-Aug-28 17:33N 54°46' E 012°46'1211.9
2016-Aug-28 16:33N 54°39' E 012°28'1111.0
2016-Aug-28 15:33N 54°31' E 012°16'10 9.8
2016-Aug-28 14:33N 54°25' E 012°03'1212.1
2016-Aug-28 13:33N 54°26' E 011°43'1211.7
2016-Aug-28 12:33N 54°31' E 011°24'1111.1
2016-Aug-28 11:33N 54°35' E 011°06'1010.4
2016-Aug-28 10:33N 54°39' E 010°50'10 9.5
2016-Aug-28 09:33N 54°49' E 010°50'1010.1
2016-Aug-28 08:33N 54°58' E 010°57'1010.4
2016-Aug-28 07:33N 55°08' E 010°59'9 9.0
2016-Aug-28 06:33N 55°17' E 011°03'1110.3
2016-Aug-28 05:30N 55°27' E 010°56'30 9.3
2016-Aug-28 02:17N 55°57' E 010°59'810.6
2016-Aug-28 01:33N 56°03' E 011°06'1110.7
2016-Aug-28 00:33N 56°12' E 011°18'1110.9
2016-Aug-27 23:33N 56°22' E 011°26'1111.3
2016-Aug-27 22:33N 56°31' E 011°37'1111.2
2016-Aug-27 21:33N 56°41' E 011°47'1010.1
2016-Aug-27 20:33N 56°51' E 011°48'1111.2
2016-Aug-27 19:33N 57°02' E 011°41'1111.1
2016-Aug-27 18:33N 57°12' E 011°34'1111.5
2016-Aug-27 17:33N 57°23' E 011°26'1111.0
2016-Aug-27 16:33N 57°32' E 011°15'1111.2
2016-Aug-27 15:33N 57°36' E 010°56'10 1.1
2016-Aug-27 06:32N 57°40' E 010°38'7 3.6
2016-Aug-27 04:33N 57°47' E 010°40'65 9.2
2016-Aug-26 21:32N 57°22' E 008°49'221 9.9
2016-Aug-25 23:17N 54°25' E 004°52'811.6
2016-Aug-25 22:33N 54°18' E 004°45'3411.1
2016-Aug-25 19:28N 53°47' E 004°22'77 9.7
2016-Aug-25 11:30N 52°40' E 003°17'1111.1
2016-Aug-25 10:33N 52°29' E 003°14'1211.8
2016-Aug-25 09:34N 52°18' E 003°10'1212.1
2016-Aug-25 08:33N 52°06' E 003°04'1312.6
2016-Aug-25 07:33N 51°57' E 002°50'1312.8
2016-Aug-25 06:33N 51°47' E 002°36'2612.8
2016-Aug-25 04:33N 51°28' E 002°10'1212.3
2016-Aug-25 03:34N 51°19' E 001°57'1211.9
2016-Aug-25 02:34N 51°10' E 001°44'1110.8
2016-Aug-25 01:33N 51°01' E 001°34'9 9.2
2016-Aug-25 00:34N 50°54' E 001°25'10 9.2
2016-Aug-24 23:25N 50°43' E 001°21'9 9.9
2016-Aug-24 22:31N 50°37' E 001°11'13 9.7
2016-Aug-24 21:08N 50°31' E 000°53'610.3
2016-Aug-24 20:32N 50°29' E 000°43'1010.2
2016-Aug-24 19:33N 50°26' E 000°28'1010.0
2016-Aug-24 18:33N 50°23' E 000°13'1010.3
2016-Aug-24 17:33N 50°21' W 000°03'1010.5
2016-Aug-24 16:34N 50°18' W 000°18'1111.0
2016-Aug-24 15:34N 50°15' W 000°35'1212.2
2016-Aug-24 14:33N 50°11' W 000°53'1813.8
2016-Aug-24 13:13N 50°06' W 001°21'1014.7
2016-Aug-24 12:33N 50°03' W 001°35'2315.2
2016-Aug-24 11:04N 49°57' W 002°09'714.1
2016-Aug-24 10:33N 49°55' W 002°20'1313.2
2016-Aug-24 09:34N 49°51' W 002°39'1312.5
2016-Aug-24 08:33N 49°48' W 002°58'1111.6
2016-Aug-24 07:34N 49°42' W 003°14'1211.3
2016-Aug-24 06:30N 49°36' W 003°30'2210.6
2016-Aug-24 04:26N 49°24' W 003°58'9 9.9
2016-Aug-24 03:34N 49°20' W 004°09'10 9.7
2016-Aug-24 02:34N 49°15' W 004°22'10 9.6
2016-Aug-24 01:31N 49°10' W 004°36'9 9.7
2016-Aug-24 00:34N 49°05' W 004°47'1010.1
2016-Aug-23 23:33N 48°59' W 005°00'1110.8
2016-Aug-23 22:33N 48°54' W 005°15'1211.7
2016-Aug-23 21:34N 48°48' W 005°30'1111.2
2016-Aug-23 20:33N 48°39' W 005°41'1212.0
2016-Aug-23 19:33N 48°29' W 005°49'24911.7
2016-Aug-22 22:16N 44°48' W 008°38'811.6
2016-Aug-22 21:33N 44°41' W 008°43'2511.2
2016-Aug-22 19:21N 44°19' W 008°59'1111.2
2016-Aug-22 18:20N 44°09' W 009°07'911.4
2016-Aug-22 17:33N 44°01' W 009°12'23210.8
2016-Aug-21 20:07N 40°19' W 010°43'6 9.9
2016-Aug-21 19:33N 40°14' W 010°45'13 9.7
2016-Aug-21 18:16N 40°02' W 010°50'710.4
2016-Aug-21 17:34N 39°55' W 010°52'1110.4
2016-Aug-21 16:31N 39°45' W 010°56'1010.1
2016-Aug-21 15:33N 39°35' W 010°59'11 9.9
2016-Aug-21 14:26N 39°25' W 011°03'  
2016-Aug-19 09:04N 30°11' W 014°13'611.4
2016-Aug-19 08:33N 30°06' W 014°15'1211.6
2016-Aug-19 07:33N 29°54' W 014°19'1211.8
2016-Aug-19 06:33N 29°43' W 014°23'1211.6
2016-Aug-19 05:33N 29°32' W 014°26'1511.4
2016-Aug-19 04:15N 29°18' W 014°31'811.3
2016-Aug-19 03:33N 29°10' W 014°33'1111.5
2016-Aug-19 02:34N 28°59' W 014°36'  

Dump ship's entire track history